sensor_id;sensor_type;location;lat;lon;timestamp;P1;durP1;ratioP1;P2;durP2;ratioP2
36303;SDS011;22335;49.800;8.596;2023-01-16T00:00:00;8.32;;;7.68;;
36303;SDS011;22335;49.800;8.596;2023-01-16T00:06:46;8.68;;;7.60;;
36303;SDS011;22335;49.800;8.596;2023-01-16T00:13:31;8.90;;;7.97;;
36303;SDS011;22335;49.800;8.596;2023-01-16T00:20:15;8.07;;;7.38;;
36303;SDS011;22335;49.800;8.596;2023-01-16T00:26:59;8.70;;;8.00;;
36303;SDS011;22335;49.800;8.596;2023-01-16T00:33:45;8.60;;;7.80;;
36303;SDS011;22335;49.800;8.596;2023-01-16T00:40:29;8.38;;;7.43;;
36303;SDS011;22335;49.800;8.596;2023-01-16T00:47:12;8.57;;;7.80;;
36303;SDS011;22335;49.800;8.596;2023-01-16T00:53:57;8.65;;;7.78;;
36303;SDS011;22335;49.800;8.596;2023-01-16T01:00:40;9.55;;;8.68;;
36303;SDS011;22335;49.800;8.596;2023-01-16T01:07:44;8.48;;;7.82;;
36303;SDS011;22335;49.800;8.596;2023-01-16T01:14:29;8.20;;;7.60;;
36303;SDS011;22335;49.800;8.596;2023-01-16T01:21:13;8.27;;;7.60;;
36303;SDS011;22335;49.800;8.596;2023-01-16T01:27:56;8.25;;;7.50;;
36303;SDS011;22335;49.800;8.596;2023-01-16T01:34:41;8.73;;;8.00;;
36303;SDS011;22335;49.800;8.596;2023-01-16T01:41:24;8.23;;;7.40;;
36303;SDS011;22335;49.800;8.596;2023-01-16T01:48:12;9.30;;;8.00;;
36303;SDS011;22335;49.800;8.596;2023-01-16T01:55:06;8.57;;;7.82;;
36303;SDS011;22335;49.800;8.596;2023-01-16T02:01:53;10.35;;;8.52;;
36303;SDS011;22335;49.800;8.596;2023-01-16T02:08:38;9.05;;;8.27;;
36303;SDS011;22335;49.800;8.596;2023-01-16T02:15:26;9.20;;;8.32;;
36303;SDS011;22335;49.800;8.596;2023-01-16T02:22:30;8.75;;;8.13;;
36303;SDS011;22335;49.800;8.596;2023-01-16T02:30:00;8.60;;;7.93;;
36303;SDS011;22335;49.800;8.596;2023-01-16T02:37:36;10.20;;;8.70;;
36303;SDS011;22335;49.800;8.596;2023-01-16T02:44:32;9.68;;;8.23;;
36303;SDS011;22335;49.800;8.596;2023-01-16T02:51:27;8.55;;;7.80;;
36303;SDS011;22335;49.800;8.596;2023-01-16T02:58:18;8.93;;;8.10;;
36303;SDS011;22335;49.800;8.596;2023-01-16T03:05:04;8.63;;;7.90;;
36303;SDS011;22335;49.800;8.596;2023-01-16T03:11:52;7.95;;;7.35;;
36303;SDS011;22335;49.800;8.596;2023-01-16T03:18:55;8.32;;;7.63;;
36303;SDS011;22335;49.800;8.596;2023-01-16T03:25:54;7.97;;;7.35;;
36303;SDS011;22335;49.800;8.596;2023-01-16T03:32:44;8.07;;;7.57;;
36303;SDS011;22335;49.800;8.596;2023-01-16T03:39:35;8.68;;;7.97;;
36303;SDS011;22335;49.800;8.596;2023-01-16T04:01:29;7.28;;;6.25;;
36303;SDS011;22335;49.800;8.596;2023-01-16T04:08:22;6.85;;;6.35;;
36303;SDS011;22335;49.800;8.596;2023-01-16T04:15:11;6.57;;;6.07;;
36303;SDS011;22335;49.800;8.596;2023-01-16T04:21:56;7.95;;;7.00;;
36303;SDS011;22335;49.800;8.596;2023-01-16T04:28:41;8.02;;;7.22;;
36303;SDS011;22335;49.800;8.596;2023-01-16T04:35:24;8.10;;;7.50;;
36303;SDS011;22335;49.800;8.596;2023-01-16T04:42:09;8.13;;;7.32;;
36303;SDS011;22335;49.800;8.596;2023-01-16T04:48:53;8.70;;;7.90;;
36303;SDS011;22335;49.800;8.596;2023-01-16T04:55:36;7.32;;;6.72;;
36303;SDS011;22335;49.800;8.596;2023-01-16T05:02:21;7.50;;;7.00;;
36303;SDS011;22335;49.800;8.596;2023-01-16T05:09:05;8.25;;;7.45;;
36303;SDS011;22335;49.800;8.596;2023-01-16T05:15:50;7.97;;;7.20;;
36303;SDS011;22335;49.800;8.596;2023-01-16T05:22:34;8.32;;;7.63;;
36303;SDS011;22335;49.800;8.596;2023-01-16T05:29:18;7.57;;;7.00;;
36303;SDS011;22335;49.800;8.596;2023-01-16T05:36:02;7.40;;;6.80;;
36303;SDS011;22335;49.800;8.596;2023-01-16T05:42:47;8.27;;;7.47;;
36303;SDS011;22335;49.800;8.596;2023-01-16T05:49:30;7.78;;;7.25;;
36303;SDS011;22335;49.800;8.596;2023-01-16T05:56:14;7.75;;;7.05;;
36303;SDS011;22335;49.800;8.596;2023-01-16T06:03:05;7.85;;;7.20;;
36303;SDS011;22335;49.800;8.596;2023-01-16T06:09:49;7.82;;;7.10;;
36303;SDS011;22335;49.800;8.596;2023-01-16T06:16:33;8.00;;;7.30;;
36303;SDS011;22335;49.800;8.596;2023-01-16T06:23:18;8.02;;;7.32;;
36303;SDS011;22335;49.800;8.596;2023-01-16T06:30:02;8.07;;;7.40;;
36303;SDS011;22335;49.800;8.596;2023-01-16T06:36:46;7.95;;;7.45;;
36303;SDS011;22335;49.800;8.596;2023-01-16T06:43:31;7.93;;;7.38;;
36303;SDS011;22335;49.800;8.596;2023-01-16T06:50:15;7.50;;;7.03;;
36303;SDS011;22335;49.800;8.596;2023-01-16T06:56:59;7.72;;;7.03;;
36303;SDS011;22335;49.800;8.596;2023-01-16T07:03:43;7.10;;;6.60;;
36303;SDS011;22335;49.800;8.596;2023-01-16T07:10:27;7.05;;;6.53;;
36303;SDS011;22335;49.800;8.596;2023-01-16T07:17:11;7.05;;;6.53;;
36303;SDS011;22335;49.800;8.596;2023-01-16T07:24:14;7.82;;;7.13;;
36303;SDS011;22335;49.800;8.596;2023-01-16T07:31:01;7.32;;;6.90;;
36303;SDS011;22335;49.800;8.596;2023-01-16T07:37:47;8.68;;;7.70;;
36303;SDS011;22335;49.800;8.596;2023-01-16T07:44:33;7.57;;;6.97;;
36303;SDS011;22335;49.800;8.596;2023-01-16T07:51:16;7.60;;;7.00;;
36303;SDS011;22335;49.800;8.596;2023-01-16T07:58:00;8.20;;;7.50;;
36303;SDS011;22335;49.800;8.596;2023-01-16T08:04:45;8.20;;;7.60;;
36303;SDS011;22335;49.800;8.596;2023-01-16T08:11:28;7.25;;;6.72;;
36303;SDS011;22335;49.800;8.596;2023-01-16T08:18:18;7.38;;;6.82;;
36303;SDS011;22335;49.800;8.596;2023-01-16T08:25:04;7.45;;;6.80;;
36303;SDS011;22335;49.800;8.596;2023-01-16T08:31:48;7.28;;;6.70;;
36303;SDS011;22335;49.800;8.596;2023-01-16T08:38:32;7.75;;;7.20;;
36303;SDS011;22335;49.800;8.596;2023-01-16T08:45:17;7.60;;;7.10;;
36303;SDS011;22335;49.800;8.596;2023-01-16T08:52:18;7.28;;;6.78;;
36303;SDS011;22335;49.800;8.596;2023-01-16T08:59:02;6.78;;;6.20;;
36303;SDS011;22335;49.800;8.596;2023-01-16T09:05:46;7.10;;;6.70;;
36303;SDS011;22335;49.800;8.596;2023-01-16T09:12:31;6.63;;;6.13;;
36303;SDS011;22335;49.800;8.596;2023-01-16T09:19:32;6.57;;;6.20;;
36303;SDS011;22335;49.800;8.596;2023-01-16T09:26:17;7.05;;;6.65;;
36303;SDS011;22335;49.800;8.596;2023-01-16T09:33:01;6.95;;;6.55;;
36303;SDS011;22335;49.800;8.596;2023-01-16T09:39:45;7.30;;;6.90;;
36303;SDS011;22335;49.800;8.596;2023-01-16T09:46:30;7.30;;;6.70;;
36303;SDS011;22335;49.800;8.596;2023-01-16T09:53:23;7.00;;;6.50;;
36303;SDS011;22335;49.800;8.596;2023-01-16T10:00:35;7.07;;;6.75;;
36303;SDS011;22335;49.800;8.596;2023-01-16T10:07:30;7.03;;;6.63;;
36303;SDS011;22335;49.800;8.596;2023-01-16T10:14:35;7.10;;;6.60;;
36303;SDS011;22335;49.800;8.596;2023-01-16T10:21:36;7.00;;;6.60;;
36303;SDS011;22335;49.800;8.596;2023-01-16T10:28:46;7.60;;;7.20;;
36303;SDS011;22335;49.800;8.596;2023-01-16T10:35:41;7.97;;;7.45;;
36303;SDS011;22335;49.800;8.596;2023-01-16T10:42:28;7.13;;;6.72;;
36303;SDS011;22335;49.800;8.596;2023-01-16T10:49:34;7.63;;;7.22;;
36303;SDS011;22335;49.800;8.596;2023-01-16T10:56:18;7.43;;;7.10;;
36303;SDS011;22335;49.800;8.596;2023-01-16T11:03:04;7.60;;;7.10;;
36303;SDS011;22335;49.800;8.596;2023-01-16T11:09:56;7.57;;;7.18;;
36303;SDS011;22335;49.800;8.596;2023-01-16T11:16:42;7.93;;;7.50;;
36303;SDS011;22335;49.800;8.596;2023-01-16T11:23:44;8.40;;;7.75;;
36303;SDS011;22335;49.800;8.596;2023-01-16T11:30:33;7.70;;;7.20;;
36303;SDS011;22335;49.800;8.596;2023-01-16T11:37:22;8.18;;;7.78;;
36303;SDS011;22335;49.800;8.596;2023-01-16T11:44:14;7.25;;;6.75;;
36303;SDS011;22335;49.800;8.596;2023-01-16T11:51:20;6.38;;;5.97;;
36303;SDS011;22335;49.800;8.596;2023-01-16T11:58:08;6.70;;;6.30;;
36303;SDS011;22335;49.800;8.596;2023-01-16T12:05:01;7.15;;;6.65;;
36303;SDS011;22335;49.800;8.596;2023-01-16T12:12:18;6.38;;;6.07;;
36303;SDS011;22335;49.800;8.596;2023-01-16T12:19:32;6.75;;;6.40;;
36303;SDS011;22335;49.800;8.596;2023-01-16T12:26:53;6.80;;;6.40;;
36303;SDS011;22335;49.800;8.596;2023-01-16T12:33:54;6.50;;;6.20;;
36303;SDS011;22335;49.800;8.596;2023-01-16T12:41:00;7.75;;;7.35;;
36303;SDS011;22335;49.800;8.596;2023-01-16T12:48:20;7.45;;;7.15;;
36303;SDS011;22335;49.800;8.596;2023-01-16T12:55:27;7.43;;;7.13;;
36303;SDS011;22335;49.800;8.596;2023-01-16T13:02:31;6.57;;;6.27;;
36303;SDS011;22335;49.800;8.596;2023-01-16T13:09:22;6.90;;;6.50;;
36303;SDS011;22335;49.800;8.596;2023-01-16T13:16:19;6.70;;;6.40;;
36303;SDS011;22335;49.800;8.596;2023-01-16T13:23:10;6.70;;;6.40;;
36303;SDS011;22335;49.800;8.596;2023-01-16T13:30:00;7.40;;;7.10;;
36303;SDS011;22335;49.800;8.596;2023-01-16T13:36:52;6.68;;;6.30;;
36303;SDS011;22335;49.800;8.596;2023-01-16T13:44:03;6.80;;;6.50;;
36303;SDS011;22335;49.800;8.596;2023-01-16T13:51:12;6.90;;;6.60;;
36303;SDS011;22335;49.800;8.596;2023-01-16T13:58:07;6.70;;;6.33;;
36303;SDS011;22335;49.800;8.596;2023-01-16T14:12:17;6.75;;;6.45;;
36303;SDS011;22335;49.800;8.596;2023-01-16T14:19:19;6.80;;;6.50;;
36303;SDS011;22335;49.800;8.596;2023-01-16T14:26:04;6.72;;;6.40;;
36303;SDS011;22335;49.800;8.596;2023-01-16T14:32:51;6.90;;;6.60;;
36303;SDS011;22335;49.800;8.596;2023-01-16T14:39:40;6.80;;;6.50;;
36303;SDS011;22335;49.800;8.596;2023-01-16T14:46:32;6.70;;;6.40;;
36303;SDS011;22335;49.800;8.596;2023-01-16T14:53:33;6.22;;;5.95;;
36303;SDS011;22335;49.800;8.596;2023-01-16T15:00:36;6.40;;;6.10;;
36303;SDS011;22335;49.800;8.596;2023-01-16T15:07:22;6.60;;;6.30;;
36303;SDS011;22335;49.800;8.596;2023-01-16T15:14:13;6.60;;;6.30;;
36303;SDS011;22335;49.800;8.596;2023-01-16T15:21:16;6.80;;;6.40;;
36303;SDS011;22335;49.800;8.596;2023-01-16T15:28:18;6.55;;;6.15;;
36303;SDS011;22335;49.800;8.596;2023-01-16T15:35:11;6.07;;;5.78;;
36303;SDS011;22335;49.800;8.596;2023-01-16T15:42:01;6.30;;;6.00;;
36303;SDS011;22335;49.800;8.596;2023-01-16T15:49:10;6.72;;;6.43;;
36303;SDS011;22335;49.800;8.596;2023-01-16T15:56:16;6.95;;;6.45;;
36303;SDS011;22335;49.800;8.596;2023-01-16T16:03:09;6.80;;;6.40;;
36303;SDS011;22335;49.800;8.596;2023-01-16T16:09:57;6.57;;;6.28;;
36303;SDS011;22335;49.800;8.596;2023-01-16T16:16:43;5.73;;;5.53;;
36303;SDS011;22335;49.800;8.596;2023-01-16T16:24:02;6.50;;;6.22;;
36303;SDS011;22335;49.800;8.596;2023-01-16T16:30:55;6.00;;;5.70;;
36303;SDS011;22335;49.800;8.596;2023-01-16T16:37:43;5.55;;;5.35;;
36303;SDS011;22335;49.800;8.596;2023-01-16T16:44:33;5.15;;;4.85;;
36303;SDS011;22335;49.800;8.596;2023-01-16T16:51:25;5.45;;;5.25;;
36303;SDS011;22335;49.800;8.596;2023-01-16T16:58:12;6.90;;;6.60;;
36303;SDS011;22335;49.800;8.596;2023-01-16T17:04:59;5.30;;;5.10;;
36303;SDS011;22335;49.800;8.596;2023-01-16T17:11:43;5.03;;;4.82;;
36303;SDS011;22335;49.800;8.596;2023-01-16T17:18:27;5.45;;;5.25;;
36303;SDS011;22335;49.800;8.596;2023-01-16T17:25:12;5.80;;;5.50;;
36303;SDS011;22335;49.800;8.596;2023-01-16T17:32:02;5.70;;;5.50;;
36303;SDS011;22335;49.800;8.596;2023-01-16T17:38:48;7.40;;;7.10;;
36303;SDS011;22335;49.800;8.596;2023-01-16T17:45:34;6.20;;;5.90;;
36303;SDS011;22335;49.800;8.596;2023-01-16T17:52:38;6.47;;;6.17;;
36303;SDS011;22335;49.800;8.596;2023-01-16T17:59:21;6.97;;;6.47;;
36303;SDS011;22335;49.800;8.596;2023-01-16T18:06:09;6.80;;;6.45;;
36303;SDS011;22335;49.800;8.596;2023-01-16T18:12:53;6.55;;;6.28;;
36303;SDS011;22335;49.800;8.596;2023-01-16T18:19:54;6.90;;;6.60;;
36303;SDS011;22335;49.800;8.596;2023-01-16T18:26:42;6.35;;;6.05;;
36303;SDS011;22335;49.800;8.596;2023-01-16T18:33:27;6.10;;;5.80;;
36303;SDS011;22335;49.800;8.596;2023-01-16T18:40:11;6.13;;;5.93;;
36303;SDS011;22335;49.800;8.596;2023-01-16T18:47:15;7.20;;;6.90;;
36303;SDS011;22335;49.800;8.596;2023-01-16T18:54:17;6.38;;;6.07;;
36303;SDS011;22335;49.800;8.596;2023-01-16T19:01:21;6.50;;;6.20;;
36303;SDS011;22335;49.800;8.596;2023-01-16T19:08:23;5.93;;;5.72;;
36303;SDS011;22335;49.800;8.596;2023-01-16T19:15:09;5.50;;;5.30;;
36303;SDS011;22335;49.800;8.596;2023-01-16T19:21:56;5.70;;;5.50;;
36303;SDS011;22335;49.800;8.596;2023-01-16T19:28:43;5.38;;;5.18;;
36303;SDS011;22335;49.800;8.596;2023-01-16T19:35:26;5.63;;;5.43;;
36303;SDS011;22335;49.800;8.596;2023-01-16T19:42:10;5.82;;;5.60;;
36303;SDS011;22335;49.800;8.596;2023-01-16T19:49:12;5.60;;;5.40;;
36303;SDS011;22335;49.800;8.596;2023-01-16T19:55:56;5.93;;;5.70;;
36303;SDS011;22335;49.800;8.596;2023-01-16T20:02:39;6.20;;;5.90;;
36303;SDS011;22335;49.800;8.596;2023-01-16T20:09:24;6.20;;;5.90;;
36303;SDS011;22335;49.800;8.596;2023-01-16T20:16:07;6.38;;;6.10;;
36303;SDS011;22335;49.800;8.596;2023-01-16T20:22:51;6.78;;;6.50;;
36303;SDS011;22335;49.800;8.596;2023-01-16T20:29:35;6.68;;;6.38;;
36303;SDS011;22335;49.800;8.596;2023-01-16T20:36:19;6.82;;;6.43;;
36303;SDS011;22335;49.800;8.596;2023-01-16T20:43:02;7.10;;;6.70;;
36303;SDS011;22335;49.800;8.596;2023-01-16T20:50:08;7.22;;;6.82;;
36303;SDS011;22335;49.800;8.596;2023-01-16T20:56:52;6.70;;;6.40;;
36303;SDS011;22335;49.800;8.596;2023-01-16T21:03:37;7.45;;;7.05;;
36303;SDS011;22335;49.800;8.596;2023-01-16T21:10:22;7.40;;;7.00;;
36303;SDS011;22335;49.800;8.596;2023-01-16T21:17:05;7.70;;;7.20;;
36303;SDS011;22335;49.800;8.596;2023-01-16T21:24:08;8.20;;;7.75;;
36303;SDS011;22335;49.800;8.596;2023-01-16T21:30:52;7.47;;;7.07;;
36303;SDS011;22335;49.800;8.596;2023-01-16T21:37:36;7.15;;;6.75;;
36303;SDS011;22335;49.800;8.596;2023-01-16T21:44:20;7.93;;;7.40;;
36303;SDS011;22335;49.800;8.596;2023-01-16T21:51:22;7.85;;;7.45;;
36303;SDS011;22335;49.800;8.596;2023-01-16T21:58:09;7.57;;;6.93;;
36303;SDS011;22335;49.800;8.596;2023-01-16T22:04:52;7.53;;;6.93;;
36303;SDS011;22335;49.800;8.596;2023-01-16T22:11:37;7.97;;;7.40;;
36303;SDS011;22335;49.800;8.596;2023-01-16T22:18:38;7.15;;;6.65;;
36303;SDS011;22335;49.800;8.596;2023-01-16T22:25:23;7.60;;;7.05;;
36303;SDS011;22335;49.800;8.596;2023-01-16T22:32:09;7.72;;;7.05;;
36303;SDS011;22335;49.800;8.596;2023-01-16T22:38:53;7.80;;;7.10;;
36303;SDS011;22335;49.800;8.596;2023-01-16T22:45:36;7.43;;;6.93;;
36303;SDS011;22335;49.800;8.596;2023-01-16T22:52:38;7.68;;;7.10;;
36303;SDS011;22335;49.800;8.596;2023-01-16T22:59:22;7.57;;;7.05;;
36303;SDS011;22335;49.800;8.596;2023-01-16T23:06:06;8.23;;;7.45;;
36303;SDS011;22335;49.800;8.596;2023-01-16T23:12:51;7.70;;;7.20;;
36303;SDS011;22335;49.800;8.596;2023-01-16T23:19:34;7.60;;;7.10;;
36303;SDS011;22335;49.800;8.596;2023-01-16T23:26:19;8.10;;;7.53;;
36303;SDS011;22335;49.800;8.596;2023-01-16T23:33:04;7.82;;;7.32;;
36303;SDS011;22335;49.800;8.596;2023-01-16T23:39:49;8.10;;;7.53;;
36303;SDS011;22335;49.800;8.596;2023-01-16T23:46:34;8.55;;;7.82;;
36303;SDS011;22335;49.800;8.596;2023-01-16T23:53:22;8.27;;;7.57;;
